Fredonia, Tennessee
Current Conditions -  °F | °C
As of 4:33 PM on Monday 22 Dec 2014 (Local Time) from KCKV Reporting Station
Overcast Overcast  
Wind Chill: 53°   Ceiling: 1500
Heat Index: 53°   Visibility: 10mi
Dew Point: 47°   Wind: 10mph
Humidity: 80%   Direction: 150°SSE
Pressure: 29.69"   Gusts: 21mph
Location:  36.4964°N, 87.234°W
Report Text: KCKV 222233Z AUTO 15009G18KT 10SM OVC015 12/08 A2969 RMK AO2 T01170083
Loading
Personal Weather Stations






























Interactive Weather Map New forecast layout! Learn more

10-Day Weather Forecast

Advertisements
Track Severe Weather on mobile